createdAt,value
2019-02-15T00:01:34.718Z,3.11
2019-02-15T00:05:42.499Z,3.15
2019-02-15T00:09:50.739Z,3.15
2019-02-15T00:13:58.992Z,3.26
2019-02-15T00:18:24.198Z,3.21
2019-02-15T00:22:32.454Z,3.21
2019-02-15T00:26:40.872Z,3.22
2019-02-15T00:30:48.565Z,3.15
2019-02-15T00:34:57.383Z,3.21
2019-02-15T00:39:06.335Z,3.26
2019-02-15T00:43:22.070Z,3.23
2019-02-15T00:47:46.634Z,3.22
2019-02-15T00:52:05.486Z,3.20
2019-02-15T00:56:41.839Z,3.16
2019-02-15T01:01:08.883Z,3.17
2019-02-15T01:05:44.658Z,3.14
2019-02-15T01:10:00.492Z,3.13
2019-02-15T01:14:08.209Z,3.10
2019-02-15T01:18:16.252Z,3.06
2019-02-15T01:22:24.379Z,3.08
2019-02-15T01:26:56.959Z,3.11
2019-02-15T01:31:21.498Z,3.08
2019-02-15T01:36:03.946Z,3.10
2019-02-15T01:40:23.033Z,3.09
2019-02-15T01:44:49.830Z,3.05
2019-02-15T01:48:57.602Z,3.12
2019-02-15T01:53:06.148Z,3.01
2019-02-15T01:57:13.922Z,3.00
2019-02-15T02:01:24.491Z,2.97
2019-02-15T02:05:32.681Z,2.95
2019-02-15T02:09:41.996Z,2.94
2019-02-15T02:13:50.140Z,2.96
2019-02-15T02:17:58.326Z,2.97
2019-02-15T02:22:06.213Z,2.84
2019-02-15T02:26:14.156Z,2.98
2019-02-15T02:30:22.475Z,2.94
2019-02-15T02:34:29.903Z,2.98
2019-02-15T02:38:38.134Z,2.97
2019-02-15T02:42:45.891Z,3.04
2019-02-15T02:46:54.209Z,2.92
2019-02-15T02:51:02.251Z,2.96
2019-02-15T02:55:10.556Z,2.99
2019-02-15T02:59:18.649Z,2.91
2019-02-15T03:03:26.897Z,2.90
2019-02-15T03:07:35.204Z,2.94
2019-02-15T03:11:42.917Z,2.89
2019-02-15T03:15:51.055Z,2.89
2019-02-15T03:19:58.837Z,2.87
2019-02-15T03:24:06.687Z,2.80
2019-02-15T03:28:15.290Z,2.81
2019-02-15T03:32:22.890Z,2.78
2019-02-15T03:36:52.433Z,2.81
2019-02-15T03:41:03.108Z,2.78
2019-02-15T03:45:11.009Z,2.88
2019-02-15T03:49:19.211Z,2.89
2019-02-15T03:53:27.431Z,2.93
2019-02-15T03:57:35.145Z,2.98
2019-02-15T04:01:43.779Z,3.07
2019-02-15T04:05:51.502Z,3.10
2019-02-15T04:09:59.287Z,3.05
2019-02-15T04:14:07.501Z,3.08
2019-02-15T04:18:15.308Z,3.09
2019-02-15T04:22:22.907Z,3.14
2019-02-15T04:26:31.052Z,3.14
2019-02-15T04:30:38.866Z,3.06
2019-02-15T04:34:47.064Z,3.15
2019-02-15T04:38:54.982Z,3.10
2019-02-15T04:43:02.582Z,3.15
2019-02-15T04:47:10.417Z,3.13
2019-02-15T04:51:18.393Z,3.19
2019-02-15T04:55:26.018Z,3.21
2019-02-15T04:59:34.375Z,3.16
2019-02-15T05:03:42.580Z,3.16
2019-02-15T05:07:50.282Z,3.16
2019-02-15T05:11:58.196Z,3.24
2019-02-15T05:16:06.542Z,3.25
2019-02-15T05:20:14.206Z,3.19
2019-02-15T05:24:22.361Z,3.21
2019-02-15T05:28:30.132Z,3.18
2019-02-15T05:32:37.791Z,3.20
2019-02-15T05:36:45.977Z,3.21
2019-02-15T05:40:53.689Z,3.28
2019-02-15T05:45:04.205Z,3.32
2019-02-15T05:49:11.761Z,3.27
2019-02-15T05:53:19.479Z,3.27
2019-02-15T05:57:27.603Z,3.32
2019-02-15T06:01:36.110Z,3.30
2019-02-15T06:05:43.836Z,3.34
2019-02-15T06:09:52.063Z,3.35
2019-02-15T06:14:00.283Z,3.35
2019-02-15T06:18:08.120Z,3.37
2019-02-15T06:22:16.396Z,3.39
2019-02-15T06:26:24.166Z,3.42
2019-02-15T06:30:32.698Z,3.48
2019-02-15T06:34:40.825Z,3.57
2019-02-15T06:38:48.437Z,3.47
2019-02-15T06:42:56.914Z,3.54
2019-02-15T06:47:05.173Z,3.60
2019-02-15T06:51:12.875Z,3.76
2019-02-15T06:55:21.016Z,3.74
2019-02-15T06:59:50.427Z,3.79
2019-02-15T07:04:38.573Z,3.71
2019-02-15T07:08:47.031Z,3.80
2019-02-15T07:12:54.782Z,3.75
2019-02-15T07:17:02.702Z,3.88
2019-02-15T07:21:10.651Z,3.79
2019-02-15T07:25:18.480Z,3.85
2019-02-15T07:29:26.404Z,3.73
2019-02-15T07:33:34.758Z,3.87
2019-02-15T07:37:42.475Z,3.72
2019-02-15T07:41:50.387Z,3.81
2019-02-15T07:45:58.316Z,3.90
2019-02-15T07:50:07.340Z,3.92
2019-02-15T07:54:15.755Z,4.08
2019-02-15T07:58:27.095Z,4.11
2019-02-15T08:02:34.998Z,4.28
2019-02-15T08:06:52.519Z,4.33
2019-02-15T08:11:00.722Z,4.35
2019-02-15T08:15:09.063Z,4.44
2019-02-15T08:19:16.981Z,4.46
2019-02-15T08:23:25.075Z,4.37
2019-02-15T08:27:32.896Z,4.78
2019-02-15T08:31:40.611Z,4.81
2019-02-15T08:35:48.302Z,5.03
2019-02-15T08:39:56.029Z,5.11
2019-02-15T08:44:04.340Z,5.36
2019-02-15T08:48:12.144Z,5.10
2019-02-15T08:52:20.325Z,5.33
2019-02-15T08:56:28.173Z,5.20
2019-02-15T09:00:36.082Z,5.17
2019-02-15T09:04:43.911Z,5.15
2019-02-15T09:08:51.881Z,5.33
2019-02-15T09:12:59.472Z,5.43
2019-02-15T09:17:07.916Z,5.30
2019-02-15T09:21:15.750Z,4.85
2019-02-15T09:25:23.597Z,4.87
2019-02-15T09:29:31.578Z,4.85
2019-02-15T09:33:39.400Z,4.67
2019-02-15T09:37:47.623Z,4.70
2019-02-15T09:41:55.726Z,4.64
2019-02-15T09:46:03.449Z,4.68
2019-02-15T09:50:12.265Z,4.69
2019-02-15T09:54:21.700Z,4.54
2019-02-15T09:58:29.635Z,4.70
2019-02-15T10:02:37.761Z,4.67
2019-02-15T10:06:46.025Z,4.56
2019-02-15T10:10:53.866Z,4.64
2019-02-15T10:15:01.818Z,5.14
2019-02-15T10:19:10.048Z,4.94
2019-02-15T10:23:17.856Z,5.11
2019-02-15T10:27:26.236Z,4.89
2019-02-15T10:31:33.955Z,5.23
2019-02-15T10:35:42.374Z,5.05
2019-02-15T10:39:50.181Z,5.13
2019-02-15T10:43:58.082Z,5.24
2019-02-15T10:48:06.463Z,4.94
2019-02-15T10:52:14.586Z,5.10
2019-02-15T10:56:22.350Z,4.90
2019-02-15T11:00:30.359Z,5.35
2019-02-15T11:04:38.379Z,5.06
2019-02-15T11:08:46.285Z,5.09
2019-02-15T11:12:54.186Z,5.44
2019-02-15T11:17:03.181Z,5.43
2019-02-15T11:21:10.942Z,5.18
2019-02-15T11:25:19.340Z,5.24
2019-02-15T11:29:27.894Z,5.16
2019-02-15T11:33:35.905Z,5.66
2019-02-15T11:37:43.821Z,5.89
2019-02-15T11:41:51.438Z,5.89
2019-02-15T11:45:59.732Z,5.49
2019-02-15T11:50:09.896Z,5.66
2019-02-15T11:54:23.507Z,6.19
2019-02-15T11:58:28.421Z,6.64
2019-02-15T12:02:36.323Z,6.23
2019-02-15T12:06:44.015Z,6.48
2019-02-15T12:10:52.150Z,6.10
2019-02-15T12:15:00.462Z,5.80
2019-02-15T12:19:08.193Z,6.36
2019-02-15T12:23:16.750Z,6.10
2019-02-15T12:27:24.723Z,5.70
2019-02-15T12:31:32.537Z,5.64
2019-02-15T12:35:40.335Z,6.36
2019-02-15T12:39:48.039Z,6.41
2019-02-15T12:43:55.934Z,5.96
2019-02-15T12:48:04.185Z,6.07
2019-02-15T12:52:11.725Z,6.03
2019-02-15T12:56:19.684Z,5.93
2019-02-15T13:00:27.711Z,5.67
2019-02-15T13:04:35.396Z,6.85
2019-02-15T13:08:44.623Z,6.29
2019-02-15T13:12:52.370Z,5.92
2019-02-15T13:17:00.203Z,6.10
2019-02-15T13:21:07.977Z,6.94
2019-02-15T13:25:16.203Z,6.57
2019-02-15T13:29:24.935Z,6.25
2019-02-15T13:33:32.932Z,6.05
2019-02-15T13:37:41.250Z,5.75
2019-02-15T13:41:48.990Z,5.80
2019-02-15T13:45:56.883Z,5.85
2019-02-15T13:50:04.825Z,5.60
2019-02-15T13:54:13.058Z,5.67
2019-02-15T13:58:21.125Z,5.60
2019-02-15T14:02:30.974Z,5.69
2019-02-15T14:06:38.251Z,5.74
2019-02-15T14:10:46.558Z,5.55
2019-02-15T14:14:54.532Z,5.39
2019-02-15T14:19:03.183Z,5.38
2019-02-15T14:23:11.219Z,5.15
2019-02-15T14:27:24.140Z,5.11
2019-02-15T14:31:33.355Z,5.11
2019-02-15T14:35:42.941Z,5.25
2019-02-15T14:39:50.843Z,5.19
2019-02-15T14:43:58.848Z,5.10
2019-02-15T14:48:07.495Z,5.14
2019-02-15T14:52:15.284Z,5.09
2019-02-15T14:56:23.324Z,5.25
2019-02-15T15:00:31.206Z,4.95
2019-02-15T15:04:39.019Z,4.91
2019-02-15T15:08:47.145Z,4.78
2019-02-15T15:12:54.843Z,5.35
2019-02-15T15:17:02.647Z,4.76
2019-02-15T15:21:10.587Z,4.61
2019-02-15T15:25:18.173Z,4.52
2019-02-15T15:29:27.057Z,4.39
2019-02-15T15:33:35.611Z,4.40
2019-02-15T15:37:43.571Z,4.37
2019-02-15T15:41:52.925Z,4.19
2019-02-15T15:46:01.827Z,4.23
2019-02-15T15:50:10.651Z,4.31
2019-02-15T15:54:19.392Z,4.06
2019-02-15T15:58:27.471Z,4.16
2019-02-15T16:02:35.398Z,4.24
2019-02-15T16:06:43.727Z,4.06
2019-02-15T16:10:52.277Z,4.06
2019-02-15T16:15:00.387Z,4.12
2019-02-15T16:19:10.213Z,4.12
2019-02-15T16:23:19.250Z,4.08
2019-02-15T16:27:30.065Z,4.01
2019-02-15T16:31:38.339Z,4.06
2019-02-15T16:35:46.708Z,4.22
2019-02-15T16:39:54.368Z,4.11
2019-02-15T16:44:02.549Z,4.14
2019-02-15T16:48:10.495Z,4.21
2019-02-15T16:52:18.824Z,4.00
2019-02-15T16:56:27.063Z,4.10
2019-02-15T17:00:34.914Z,4.14
2019-02-15T17:04:42.864Z,4.18
2019-02-15T17:08:51.099Z,4.09
2019-02-15T17:12:59.001Z,4.07
2019-02-15T17:17:06.924Z,4.18
2019-02-15T17:21:15.031Z,4.15
2019-02-15T17:25:25.231Z,4.23
2019-02-15T17:29:33.739Z,4.16
2019-02-15T17:33:41.518Z,4.13
2019-02-15T17:37:49.164Z,4.15
2019-02-15T17:41:57.374Z,4.23
2019-02-15T17:46:05.190Z,4.14
2019-02-15T17:50:13.097Z,4.19
2019-02-15T17:54:21.061Z,3.98
2019-02-15T17:58:28.897Z,4.21
2019-02-15T18:02:37.028Z,4.31
2019-02-15T18:06:45.343Z,4.09
2019-02-15T18:10:53.691Z,4.32
2019-02-15T18:15:01.886Z,4.05
2019-02-15T18:19:10.498Z,4.12
2019-02-15T18:23:19.762Z,4.21
2019-02-15T18:27:27.676Z,4.31
2019-02-15T18:31:35.627Z,4.32
2019-02-15T18:35:43.802Z,4.18
2019-02-15T18:39:52.243Z,4.10
2019-02-15T18:44:00.274Z,3.99
2019-02-15T18:48:08.746Z,3.98
2019-02-15T18:52:16.673Z,3.88
2019-02-15T18:56:24.663Z,3.89
2019-02-15T19:00:32.821Z,3.78
2019-02-15T19:04:41.295Z,3.73
2019-02-15T19:08:49.231Z,3.68
2019-02-15T19:12:57.595Z,3.59
2019-02-15T19:17:05.570Z,3.57
2019-02-15T19:21:13.724Z,3.63
2019-02-15T19:25:21.399Z,3.65
2019-02-15T19:29:29.739Z,3.73
2019-02-15T19:33:38.396Z,3.58
2019-02-15T19:37:46.188Z,3.73
2019-02-15T19:41:54.411Z,3.62
2019-02-15T19:46:02.422Z,3.73
2019-02-15T19:50:12.233Z,3.91
2019-02-15T19:54:20.319Z,4.02
2019-02-15T19:58:28.220Z,4.07
2019-02-15T20:02:36.209Z,4.09
2019-02-15T20:06:44.646Z,4.04
2019-02-15T20:10:53.388Z,4.01
2019-02-15T20:15:10.711Z,3.77
2019-02-15T20:19:18.423Z,3.74
2019-02-15T20:23:26.222Z,3.75
2019-02-15T20:27:34.126Z,3.69
2019-02-15T20:31:43.065Z,3.82
2019-02-15T20:35:50.992Z,3.99
2019-02-15T20:40:01.000Z,3.96
2019-02-15T20:44:10.296Z,3.81
2019-02-15T20:48:17.910Z,3.88
2019-02-15T20:52:26.019Z,3.93
2019-02-15T20:56:34.111Z,4.10
2019-02-15T21:00:41.955Z,4.20
2019-02-15T21:04:50.174Z,4.19
2019-02-15T21:08:58.312Z,4.17
2019-02-15T21:13:06.706Z,4.12
2019-02-15T21:17:15.026Z,4.19
2019-02-15T21:21:22.736Z,4.16
2019-02-15T21:25:30.665Z,4.16
2019-02-15T21:29:38.858Z,4.32
2019-02-15T21:33:46.791Z,4.29
2019-02-15T21:37:54.898Z,4.14
2019-02-15T21:42:02.606Z,4.22
2019-02-15T21:46:10.612Z,4.14
2019-02-15T21:50:18.948Z,4.13
2019-02-15T21:54:26.751Z,4.03
2019-02-15T21:58:34.748Z,4.13
2019-02-15T22:02:43.003Z,4.17
2019-02-15T22:06:50.534Z,4.07
2019-02-15T22:10:58.507Z,3.81
2019-02-15T22:15:07.766Z,3.96
2019-02-15T22:19:15.878Z,4.03
2019-02-15T22:23:24.154Z,4.05
2019-02-15T22:27:32.512Z,4.18
2019-02-15T22:31:40.414Z,3.83
2019-02-15T22:35:48.834Z,4.04
2019-02-15T22:39:57.058Z,4.04
2019-02-15T22:44:04.866Z,3.96
2019-02-15T22:48:13.186Z,4.00
2019-02-15T22:52:21.099Z,4.05
2019-02-15T22:56:28.795Z,4.12
2019-02-15T23:00:49.732Z,3.88
2019-02-15T23:04:58.085Z,3.82
2019-02-15T23:09:09.593Z,3.73
2019-02-15T23:13:17.963Z,3.90
2019-02-15T23:17:25.888Z,3.79
2019-02-15T23:21:33.788Z,3.72
2019-02-15T23:25:42.611Z,3.93
2019-02-15T23:29:50.650Z,3.98
2019-02-15T23:33:59.443Z,4.04
2019-02-15T23:38:07.292Z,3.87
2019-02-15T23:42:14.895Z,3.97
2019-02-15T23:46:22.899Z,4.12
2019-02-15T23:50:31.250Z,4.00
2019-02-15T23:54:38.849Z,4.03
2019-02-15T23:58:47.249Z,3.87
